Time;durP1;ratioP1;P1;durP2;ratioP2;P2;SDS_P1;SDS_P2;PMS_P1;PMS_P2;Temp;Humidity;BMP_temperature;BMP_pressure;BME280_temperature;BME280_humidity;BME280_pressure;Samples;Min_cycle;Max_cycle;Signal;HPM_P1;HPM_P2
2023/09/27 00:02:12;;;;;;;10.85;8.65;;;;;;;12.95;100.00;101979.75;5034884;28;20049;-77
2023/09/27 00:04:37;;;;;;;10.75;9.40;;;;;;;12.93;100.00;101981.50;5050098;28;20031;-77
2023/09/27 00:07:02;;;;;;;12.82;9.07;;;;;;;12.93;100.00;101983.28;5033086;28;20034;-77
2023/09/27 00:09:30;;;;;;;11.73;8.88;;;;;;;12.93;100.00;101991.13;5048658;28;20027;-77
2023/09/27 00:11:57;;;;;;;13.20;9.18;;;;;;;12.91;100.00;101988.50;5019007;28;20026;-77
2023/09/27 00:14:23;;;;;;;13.20;9.50;;;;;;;12.88;100.00;101985.94;5003832;28;20519;-76
2023/09/27 00:16:49;;;;;;;17.90;10.10;;;;;;;12.87;100.00;101981.59;5030566;28;20034;-77
2023/09/27 00:19:15;;;;;;;12.98;9.90;;;;;;;12.86;100.00;101985.13;5019365;28;20026;-77
2023/09/27 00:21:41;;;;;;;13.25;9.90;;;;;;;12.84;100.00;101990.34;5038049;28;20030;-77
2023/09/27 00:24:06;;;;;;;16.52;10.70;;;;;;;12.85;100.00;101989.50;5038382;28;20046;-77
2023/09/27 00:26:32;;;;;;;19.17;11.95;;;;;;;12.80;100.00;101986.06;5028129;28;20033;-77
2023/09/27 00:28:57;;;;;;;20.23;15.02;;;;;;;12.80;100.00;101980.81;5040730;28;20099;-77
2023/09/27 00:31:22;;;;;;;22.13;15.75;;;;;;;12.84;100.00;101984.25;5008014;28;20113;-77
2023/09/27 00:33:48;;;;;;;26.95;18.75;;;;;;;12.83;100.00;101991.25;5016254;28;20082;-77
2023/09/27 00:36:13;;;;;;;26.38;19.92;;;;;;;12.80;100.00;101985.19;5015214;28;20358;-77
2023/09/27 00:38:38;;;;;;;19.83;17.73;;;;;;;12.85;100.00;101978.13;5033546;28;20026;-76
2023/09/27 00:41:04;;;;;;;26.33;21.40;;;;;;;12.90;100.00;101976.31;5040123;28;20030;-77
2023/09/27 00:43:31;;;;;;;33.33;29.70;;;;;;;12.91;100.00;101985.91;5026826;28;20076;-77
2023/09/27 00:46:01;;;;;;;38.38;32.33;;;;;;;12.92;100.00;101978.94;5034724;28;20025;-77
2023/09/27 00:48:26;;;;;;;36.30;32.40;;;;;;;12.88;100.00;101984.22;5024470;28;20037;-77
2023/09/27 00:50:53;;;;;;;56.10;50.13;;;;;;;12.81;100.00;101985.16;5055957;28;20025;-77
2023/09/27 00:53:21;;;;;;;57.00;50.85;;;;;;;12.74;100.00;101970.44;5016571;28;20106;-77
2023/09/27 00:55:46;;;;;;;47.78;40.80;;;;;;;12.73;100.00;101979.19;5026425;28;20691;-77
2023/09/27 00:58:18;;;;;;;47.35;42.53;;;;;;;12.68;100.00;101975.75;5031722;28;20022;-77
2023/09/27 01:00:44;;;;;;;39.55;34.35;;;;;;;12.63;100.00;101983.69;5051481;28;20033;-77
2023/09/27 01:03:11;;;;;;;39.65;34.28;;;;;;;12.59;100.00;101973.31;5037601;28;20021;-77
2023/09/27 01:05:36;;;;;;;37.55;33.47;;;;;;;12.59;100.00;101970.69;5052835;28;20391;-77
2023/09/27 01:08:02;;;;;;;30.02;26.38;;;;;;;12.59;100.00;101978.53;5037158;28;20108;-77
2023/09/27 01:10:28;;;;;;;28.85;24.33;;;;;;;12.55;100.00;101976.81;5053737;28;20038;-77
2023/09/27 01:12:53;;;;;;;30.83;26.63;;;;;;;12.50;100.00;101971.66;5038617;28;20028;-77
2023/09/27 01:15:19;;;;;;;24.77;21.13;;;;;;;12.49;100.00;101974.28;5016893;28;20037;-77
2023/09/27 01:17:57;;;;;;;25.92;20.80;;;;;;;12.49;100.00;101976.91;5040152;28;20045;-77
2023/09/27 01:20:23;;;;;;;18.92;15.32;;;;;;;12.43;100.00;101959.56;5023215;28;20473;-76
2023/09/27 01:22:58;;;;;;;19.83;15.60;;;;;;;12.43;100.00;101954.34;5038287;28;20032;-76
2023/09/27 01:25:29;;;;;;;21.08;16.63;;;;;;;12.41;100.00;101949.09;5053104;28;20056;-77
2023/09/27 01:27:55;;;;;;;20.25;16.38;;;;;;;12.41;100.00;101949.09;5025341;28;20025;-77
2023/09/27 01:30:21;;;;;;;18.77;16.25;;;;;;;12.37;100.00;101936.97;5042960;28;20534;-77
2023/09/27 01:32:46;;;;;;;17.05;14.63;;;;;;;12.34;100.00;101937.00;5024450;28;20057;-76
2023/09/27 01:35:11;;;;;;;18.08;13.88;;;;;;;12.35;100.00;101940.47;5047920;28;20029;-76
2023/09/27 01:37:36;;;;;;;17.27;14.50;;;;;;;12.30;100.00;101935.31;5035811;28;20419;-77
2023/09/27 01:40:06;;;;;;;14.57;12.25;;;;;;;12.29;100.00;101938.78;5049200;28;20033;-77
2023/09/27 01:42:32;;;;;;;15.13;12.40;;;;;;;12.29;100.00;101936.19;5026684;28;20108;-77
2023/09/27 01:44:57;;;;;;;14.65;11.70;;;;;;;12.28;100.00;101942.31;4994176;28;20121;-76
2023/09/27 01:47:22;;;;;;;16.30;11.57;;;;;;;12.25;100.00;101941.47;5034991;28;20040;-76
2023/09/27 01:49:48;;;;;;;14.30;12.02;;;;;;;12.21;100.00;101939.81;5021740;28;20056;-77
2023/09/27 01:52:13;;;;;;;15.77;11.77;;;;;;;12.24;100.00;101950.22;5022719;28;20492;-76
2023/09/27 01:54:38;;;;;;;14.20;11.38;;;;;;;12.21;100.00;101951.13;5018384;28;20083;-77
2023/09/27 01:57:04;;;;;;;11.85;10.65;;;;;;;12.20;100.00;101954.63;5030503;28;20028;-77
2023/09/27 01:59:29;;;;;;;14.18;11.20;;;;;;;12.18;100.00;101948.53;5025208;28;20105;-77
2023/09/27 02:01:54;;;;;;;12.13;10.48;;;;;;;12.14;100.00;101946.84;5032323;28;20071;-77
2023/09/27 02:04:19;;;;;;;14.55;11.00;;;;;;;12.13;100.00;101951.22;5036635;28;20439;-77
2023/09/27 02:06:45;;;;;;;13.80;10.38;;;;;;;12.12;100.00;101948.63;5025938;28;20070;-77
2023/09/27 02:09:10;;;;;;;12.85;10.35;;;;;;;12.09;100.00;101949.50;5044709;28;20471;-77
2023/09/27 02:11:35;;;;;;;14.48;11.82;;;;;;;12.05;100.00;101942.59;5025861;28;20532;-76
2023/09/27 02:14:04;;;;;;;12.90;11.52;;;;;;;12.03;100.00;101941.75;5045226;28;20033;-76
2023/09/27 02:16:31;;;;;;;14.50;10.88;;;;;;;12.07;100.00;101939.97;5019167;28;20026;-77
2023/09/27 02:18:56;;;;;;;13.35;11.00;;;;;;;12.03;100.00;101938.25;5043366;28;20484;-76
2023/09/27 02:21:22;;;;;;;14.23;10.63;;;;;;;12.03;100.00;101943.50;5028558;28;20068;-77
2023/09/27 02:23:47;;;;;;;13.48;11.50;;;;;;;11.98;100.00;101943.56;5046520;28;20035;-77
2023/09/27 02:26:12;;;;;;;12.43;11.13;;;;;;;12.00;100.00;101948.75;5028965;28;20045;-76
2023/09/27 02:28:38;;;;;;;12.43;10.73;;;;;;;12.00;100.00;101943.53;5041988;28;20095;-77
2023/09/27 02:31:09;;;;;;;15.50;11.68;;;;;;;11.98;100.00;101956.63;5034570;28;20354;-76
2023/09/27 02:33:34;;;;;;;14.48;11.27;;;;;;;11.98;100.00;101955.75;5039624;28;20090;-77
2023/09/27 02:35:59;;;;;;;13.70;10.90;;;;;;;11.95;100.00;101943.59;5042643;28;20033;-77
2023/09/27 02:38:25;;;;;;;12.23;10.95;;;;;;;11.94;100.00;101941.88;5029445;28;20496;-77
2023/09/27 02:40:51;;;;;;;15.93;12.38;;;;;;;11.90;100.00;101950.59;5052859;28;20382;-77
2023/09/27 02:43:16;;;;;;;13.90;11.80;;;;;;;11.91;100.00;101950.59;4997699;28;20055;-77
2023/09/27 02:45:42;;;;;;;14.45;11.35;;;;;;;11.88;100.00;101944.56;5013268;28;20040;-76
2023/09/27 02:48:09;;;;;;;15.13;11.60;;;;;;;11.86;100.00;101938.47;5021544;28;20036;-76
2023/09/27 02:50:34;;;;;;;13.35;11.82;;;;;;;11.86;100.00;101946.31;5042173;28;20095;-76
2023/09/27 02:52:59;;;;;;;12.45;10.95;;;;;;;11.85;100.00;101942.84;5030020;28;20026;-77
2023/09/27 02:55:25;;;;;;;13.07;10.80;;;;;;;11.85;100.00;101950.66;5044719;28;20027;-76
2023/09/27 02:57:51;;;;;;;14.40;11.20;;;;;;;11.83;100.00;101947.16;5019066;28;20472;-76
2023/09/27 03:00:18;;;;;;;13.13;10.95;;;;;;;11.86;100.00;101949.78;5009893;28;20078;-76
2023/09/27 03:02:43;;;;;;;14.90;11.00;;;;;;;11.83;100.00;101941.06;5016762;28;20026;-76
2023/09/27 03:05:09;;;;;;;12.25;10.98;;;;;;;11.81;100.00;101938.50;5025144;28;20362;-76
2023/09/27 03:07:35;;;;;;;12.68;11.15;;;;;;;11.81;100.00;101937.63;5019874;28;20499;-76
2023/09/27 03:10:01;;;;;;;14.55;11.55;;;;;;;11.79;100.00;101937.63;5031794;28;20033;-76
2023/09/27 03:12:27;;;;;;;12.20;10.98;;;;;;;11.78;100.00;101937.66;5049548;28;20511;-76
2023/09/27 03:14:52;;;;;;;13.77;11.45;;;;;;;11.80;100.00;101946.34;5016323;28;20121;-77
2023/09/27 03:17:18;;;;;;;13.70;11.40;;;;;;;11.76;100.00;101958.56;5031940;28;20030;-76
2023/09/27 03:19:46;;;;;;;13.30;11.60;;;;;;;11.76;100.00;101955.97;5015690;28;20477;-76
2023/09/27 03:22:11;;;;;;;14.48;11.65;;;;;;;11.74;100.00;101957.75;5019184;28;20026;-76
2023/09/27 03:24:36;;;;;;;15.63;11.85;;;;;;;11.73;100.00;101951.63;5022360;28;20049;-76
2023/09/27 03:27:04;;;;;;;14.32;12.07;;;;;;;11.65;100.00;101943.00;5022838;28;20468;-76
2023/09/27 03:29:30;;;;;;;14.63;13.13;;;;;;;11.68;100.00;101955.19;5021818;28;20077;-76
2023/09/27 03:31:55;;;;;;;14.50;12.27;;;;;;;11.63;100.00;101956.97;5017687;28;20022;-76
2023/09/27 03:34:21;;;;;;;19.13;12.88;;;;;;;11.67;100.00;101963.88;5034495;28;20040;-77
2023/09/27 03:36:48;;;;;;;17.30;12.25;;;;;;;11.65;100.00;101963.91;5014092;28;20120;-76
2023/09/27 03:39:14;;;;;;;14.52;12.48;;;;;;;11.68;100.00;101970.84;5027565;28;20025;-77
2023/09/27 03:41:39;;;;;;;17.50;12.40;;;;;;;11.67;100.00;101971.72;5022909;28;20388;-76
2023/09/27 03:44:05;;;;;;;14.00;11.85;;;;;;;11.63;100.00;101976.09;5016267;28;20021;-76
2023/09/27 03:46:30;;;;;;;16.23;12.65;;;;;;;11.61;100.00;101979.63;5009789;28;20117;-76
2023/09/27 03:48:56;;;;;;;15.55;11.63;;;;;;;11.56;100.00;101968.34;5040993;28;20045;-77
2023/09/27 03:51:23;;;;;;;14.70;12.23;;;;;;;11.58;100.00;101958.78;5002417;28;20131;-76
2023/09/27 03:53:48;;;;;;;14.27;12.05;;;;;;;11.55;100.00;101945.75;5014170;28;20484;-76
2023/09/27 03:56:14;;;;;;;16.92;14.02;;;;;;;11.48;100.00;101943.19;5033120;28;20022;-77
2023/09/27 03:58:39;;;;;;;17.00;14.18;;;;;;;11.45;100.00;101940.59;5020604;28;20043;-77
2023/09/27 04:01:04;;;;;;;18.45;13.63;;;;;;;11.44;100.00;101945.81;5018520;28;20037;-76
2023/09/27 04:03:29;;;;;;;18.55;15.02;;;;;;;11.43;100.00;101959.78;5020821;28;20086;-76
2023/09/27 04:05:57;;;;;;;22.17;17.00;;;;;;;11.41;100.00;101962.41;5020582;28;20041;-77
2023/09/27 04:08:22;;;;;;;22.05;17.23;;;;;;;11.40;100.00;101976.31;5048281;28;20531;-77
2023/09/27 04:10:48;;;;;;;20.92;17.73;;;;;;;11.39;100.00;101977.22;5017145;28;20105;-77
2023/09/27 04:13:14;;;;;;;24.98;18.38;;;;;;;11.41;100.00;101990.25;5040131;28;20057;-77
2023/09/27 04:15:39;;;;;;;24.17;20.67;;;;;;;11.40;100.00;101993.75;5022673;28;20071;-77
2023/09/27 04:18:05;;;;;;;29.20;22.27;;;;;;;11.40;100.00;101983.28;5018986;28;20065;-77
2023/09/27 04:20:31;;;;;;;22.75;20.30;;;;;;;11.36;100.00;101974.63;5022325;28;20077;-77
2023/09/27 04:22:56;;;;;;;23.50;20.92;;;;;;;11.34;100.00;101972.91;5019500;28;20022;-77
2023/09/27 04:25:22;;;;;;;22.25;19.33;;;;;;;11.28;100.00;101975.56;5033870;28;20041;-77
2023/09/27 04:27:49;;;;;;;23.77;19.52;;;;;;;11.28;100.00;101989.50;5029196;28;20105;-77
2023/09/27 04:30:18;;;;;;;24.58;20.02;;;;;;;11.25;100.00;101992.13;5026072;28;20350;-77
2023/09/27 04:32:46;;;;;;;23.25;20.75;;;;;;;11.29;100.00;102006.03;5029748;28;20034;-77
2023/09/27 04:35:13;;;;;;;27.88;21.13;;;;;;;11.27;100.00;101992.97;5026702;28;20030;-77
2023/09/27 04:37:39;;;;;;;25.48;22.00;;;;;;;11.26;100.00;101999.09;5043436;28;20039;-76
2023/09/27 04:40:14;;;;;;;25.80;22.95;;;;;;;11.26;100.00;102009.53;5024615;28;20030;-77
2023/09/27 04:42:44;;;;;;;29.42;24.98;;;;;;;11.24;100.00;102004.28;5046422;28;20028;-76
2023/09/27 04:45:11;;;;;;;26.58;23.05;;;;;;;11.27;100.00;102008.63;5025321;28;20026;-77
2023/09/27 04:47:37;;;;;;;25.20;22.55;;;;;;;11.23;100.00;101980.84;5047644;28;20029;-77
2023/09/27 04:50:03;;;;;;;22.67;20.30;;;;;;;11.25;100.00;101971.25;5018926;28;20037;-77
2023/09/27 04:52:29;;;;;;;21.27;18.25;;;;;;;11.23;100.00;101962.56;5024827;28;20050;-77
2023/09/27 04:54:58;;;;;;;19.52;17.50;;;;;;;11.21;100.00;101985.19;5059933;28;20038;-77
2023/09/27 04:57:24;;;;;;;23.58;18.33;;;;;;;11.16;100.00;102000.03;5026734;28;20499;-77
2023/09/27 04:59:53;;;;;;;21.92;17.83;;;;;;;11.12;100.00;101993.97;5050408;28;20037;-77
2023/09/27 05:02:19;;;;;;;20.48;17.65;;;;;;;11.15;100.00;101986.13;5026554;28;20025;-77
2023/09/27 05:04:45;;;;;;;20.02;17.05;;;;;;;11.15;100.00;101998.28;5052493;28;20499;-77
2023/09/27 05:07:10;;;;;;;19.02;17.00;;;;;;;11.15;100.00;101990.44;5020703;28;20022;-77
2023/09/27 05:09:36;;;;;;;19.75;17.55;;;;;;;11.12;100.00;101987.88;5046049;28;20032;-77
2023/09/27 05:12:01;;;;;;;19.90;17.83;;;;;;;11.15;100.00;101993.06;5038259;28;20469;-77
2023/09/27 05:14:26;;;;;;;21.50;17.27;;;;;;;11.19;100.00;101976.53;5019978;28;20421;-77
2023/09/27 05:16:51;;;;;;;19.60;16.50;;;;;;;11.18;100.00;101969.53;5011035;28;20461;-77
2023/09/27 05:19:17;;;;;;;21.05;16.58;;;;;;;11.10;100.00;101953.97;5016386;28;20108;-77
2023/09/27 05:21:43;;;;;;;18.45;16.50;;;;;;;11.16;100.00;101968.72;5040093;28;20056;-77
2023/09/27 05:24:08;;;;;;;18.45;16.35;;;;;;;11.11;100.00;101965.25;5023171;28;20038;-77
2023/09/27 05:26:34;;;;;;;20.33;16.08;;;;;;;11.11;100.00;101965.25;5046277;28;20104;-77
2023/09/27 05:28:59;;;;;;;20.88;15.05;;;;;;;11.11;100.00;101960.91;5055082;28;20073;-77
2023/09/27 05:31:24;;;;;;;19.88;14.55;;;;;;;11.05;100.00;101960.94;5060264;28;20391;-77
2023/09/27 05:33:50;;;;;;;15.93;13.18;;;;;;;11.07;100.00;101968.78;5055445;28;20026;-77
2023/09/27 05:36:15;;;;;;;16.60;13.55;;;;;;;11.05;100.00;101966.16;5054309;28;20093;-77
2023/09/27 05:38:41;;;;;;;15.20;13.27;;;;;;;11.05;100.00;101963.56;5062607;28;20101;-77
2023/09/27 05:41:07;;;;;;;14.35;12.65;;;;;;;11.04;100.00;101959.22;5054756;28;20040;-77
2023/09/27 05:43:32;;;;;;;13.98;12.55;;;;;;;11.04;100.00;101972.28;5059672;28;20219;-77
2023/09/27 05:45:57;;;;;;;15.18;12.02;;;;;;;11.02;100.00;101955.78;5024283;28;20030;-77
2023/09/27 05:48:23;;;;;;;18.10;13.35;;;;;;;11.06;100.00;101964.44;5038564;28;20109;-77
2023/09/27 05:50:50;;;;;;;15.73;12.70;;;;;;;11.08;100.00;101960.91;5019642;28;20053;-77
2023/09/27 05:53:17;;;;;;;16.17;12.52;;;;;;;11.05;100.00;101954.88;5020536;28;20013;-77
2023/09/27 05:55:44;;;;;;;16.95;12.13;;;;;;;11.04;100.00;101947.91;5047395;28;20380;-77
2023/09/27 05:58:10;;;;;;;14.82;12.55;;;;;;;11.05;100.00;101944.44;5032754;28;20149;-77
2023/09/27 06:00:40;;;;;;;19.63;12.35;;;;;;;11.10;100.00;101955.72;5046502;28;20101;-76
2023/09/27 06:03:06;;;;;;;15.52;12.27;;;;;;;11.09;100.00;101949.63;5033445;28;20022;-77
2023/09/27 06:05:32;;;;;;;14.02;12.50;;;;;;;11.09;100.00;101951.38;5048147;28;20400;-77
2023/09/27 06:07:58;;;;;;;16.42;12.55;;;;;;;11.14;100.00;101957.41;5031040;28;20112;-77
2023/09/27 06:10:23;;;;;;;18.73;12.60;;;;;;;11.17;100.00;101955.63;5046061;28;20106;-76
2023/09/27 06:12:48;;;;;;;13.10;11.70;;;;;;;11.23;100.00;101952.13;5017797;28;20030;-77
2023/09/27 06:15:14;;;;;;;20.30;12.57;;;;;;;11.34;100.00;101955.47;5029621;28;20042;-77
2023/09/27 06:17:42;;;;;;;16.52;12.60;;;;;;;11.45;100.00;101956.28;5032413;28;20063;-77
2023/09/27 06:20:11;;;;;;;14.60;12.20;;;;;;;11.56;100.00;101957.91;5005843;28;20547;-77
2023/09/27 06:22:37;;;;;;;18.13;12.65;;;;;;;11.65;100.00;101953.47;5034560;28;20067;-77
2023/09/27 06:25:02;;;;;;;18.75;12.52;;;;;;;11.72;100.00;101943.81;5026102;28;20034;-76
2023/09/27 06:27:28;;;;;;;20.63;13.13;;;;;;;11.78;100.00;101938.53;5037964;28;20111;-76
2023/09/27 06:29:53;;;;;;;17.75;12.32;;;;;;;11.90;100.00;101935.81;5019644;28;20390;-76
2023/09/27 06:32:19;;;;;;;16.08;12.90;;;;;;;12.02;100.00;101940.00;5028989;28;20458;-77
2023/09/27 06:34:44;;;;;;;17.42;13.15;;;;;;;12.16;100.00;101937.22;5020829;28;20469;-76
2023/09/27 06:37:09;;;;;;;19.65;12.32;;;;;;;12.29;100.00;101928.34;5025430;28;20047;-77
2023/09/27 06:39:35;;;;;;;21.92;12.60;;;;;;;12.44;100.00;101927.28;5022976;28;20430;-76
2023/09/27 06:42:00;;;;;;;18.33;14.88;;;;;;;12.55;100.00;101922.75;5020417;28;20123;-77
2023/09/27 06:44:25;;;;;;;24.52;15.07;;;;;;;12.70;100.00;101931.28;5025075;28;20040;-77
2023/09/27 06:46:52;;;;;;;20.27;13.48;;;;;;;12.86;100.00;101927.53;5022166;28;20034;-77
2023/09/27 06:49:17;;;;;;;23.67;14.32;;;;;;;13.05;100.00;101936.84;5042269;28;20022;-77
2023/09/27 06:51:43;;;;;;;23.90;13.60;;;;;;;13.18;100.00;101942.72;5025022;28;20026;-77
2023/09/27 06:54:09;;;;;;;17.38;13.05;;;;;;;13.23;100.00;101959.22;5023603;28;20465;-76
2023/09/27 06:56:34;;;;;;;24.05;14.93;;;;;;;13.26;100.00;101959.19;5054776;28;20384;-77
2023/09/27 06:59:00;;;;;;;18.10;13.07;;;;;;;13.23;100.00;101946.13;5020026;28;20026;-77
2023/09/27 07:01:26;;;;;;;17.25;12.68;;;;;;;13.29;100.00;101958.28;5022012;28;20041;-77
2023/09/27 07:03:51;;;;;;;14.55;12.57;;;;;;;13.31;100.00;101944.28;5023259;28;20022;-76
2023/09/27 07:06:17;;;;;;;15.88;12.77;;;;;;;13.35;100.00;101943.34;5048263;28;20029;-77
2023/09/27 07:08:44;;;;;;;16.10;12.48;;;;;;;13.39;100.00;101943.28;5033940;28;20037;-76
2023/09/27 07:11:09;;;;;;;16.52;12.93;;;;;;;13.36;100.00;101941.56;5048545;28;20476;-77
2023/09/27 07:13:37;;;;;;;15.60;13.90;;;;;;;13.38;100.00;101942.41;5025041;28;20037;-77
2023/09/27 07:16:21;;;;;;;18.65;13.25;;;;;;;13.36;100.00;101952.03;5005192;28;20030;-77
2023/09/27 07:18:50;;;;;;;17.38;13.50;;;;;;;13.30;100.00;101947.78;5010857;28;20377;-77
2023/09/27 07:21:19;;;;;;;20.35;14.32;;;;;;;13.27;100.00;101954.81;5048193;28;20024;-77
2023/09/27 07:23:45;;;;;;;16.83;13.20;;;;;;;13.26;100.00;101953.97;5035951;28;20030;-77
2023/09/27 07:26:10;;;;;;;17.25;14.57;;;;;;;13.23;100.00;101959.22;5019896;28;20040;-76
2023/09/27 07:28:36;;;;;;;16.52;13.18;;;;;;;13.19;100.00;101956.69;5014191;28;20082;-76
2023/09/27 07:31:02;;;;;;;17.25;14.05;;;;;;;13.15;100.00;101950.63;5010265;28;20504;-76
2023/09/27 07:33:29;;;;;;;18.10;13.80;;;;;;;13.13;100.00;101952.41;5011545;28;20065;-77
2023/09/27 07:35:54;;;;;;;18.60;14.63;;;;;;;13.12;100.00;101963.78;5009063;28;20033;-77
2023/09/27 07:38:20;;;;;;;16.23;14.18;;;;;;;13.15;100.00;101957.63;5022661;28;20038;-77
2023/09/27 07:40:47;;;;;;;18.92;14.55;;;;;;;13.16;100.00;101956.72;4999521;28;20033;-76
2023/09/27 07:43:12;;;;;;;17.83;15.07;;;;;;;13.21;100.00;101949.66;5018249;28;20022;-77
2023/09/27 07:45:41;;;;;;;21.10;15.80;;;;;;;13.26;100.00;101948.72;5032489;28;20100;-77
2023/09/27 07:48:07;;;;;;;18.15;14.32;;;;;;;13.32;100.00;101947.75;5018406;28;20484;-77
2023/09/27 07:50:37;;;;;;;17.85;15.70;;;;;;;13.37;100.00;101943.28;5033154;28;20037;-77
2023/09/27 07:53:03;;;;;;;18.30;16.13;;;;;;;13.43;100.00;101955.41;5013079;28;20156;-76
2023/09/27 07:55:32;;;;;;;21.45;17.33;;;;;;;13.50;100.00;101964.91;5042787;28;20037;-77
2023/09/27 07:57:58;;;;;;;21.27;16.10;;;;;;;13.62;100.00;101954.19;5027186;28;20036;-76
2023/09/27 08:00:28;;;;;;;21.92;16.00;;;;;;;13.78;100.00;101960.03;5015929;28;20241;-76
2023/09/27 08:02:55;;;;;;;19.02;15.18;;;;;;;13.94;100.00;101964.09;5007484;28;20018;-77
2023/09/27 08:05:22;;;;;;;23.95;15.65;;;;;;;14.09;100.00;101951.53;5018516;28;20030;-76
2023/09/27 08:07:48;;;;;;;18.58;14.85;;;;;;;14.22;100.00;101964.41;5019137;28;20415;-76
2023/09/27 08:10:15;;;;;;;18.20;15.48;;;;;;;14.33;100.00;101964.16;5019217;28;20026;-76
2023/09/27 08:12:40;;;;;;;19.13;15.80;;;;;;;14.43;100.00;101960.44;5005513;28;20037;-77
2023/09/27 08:15:07;;;;;;;20.45;14.82;;;;;;;14.51;100.00;101965.53;5027940;28;20031;-77
2023/09/27 08:17:33;;;;;;;19.45;14.60;;;;;;;14.56;100.00;101958.44;5029597;28;20469;-77
2023/09/27 08:19:59;;;;;;;19.55;15.05;;;;;;;14.69;100.00;101965.16;5037057;28;20081;-76
2023/09/27 08:22:24;;;;;;;20.48;15.50;;;;;;;14.87;100.00;101965.63;5049521;28;20371;-77
2023/09/27 08:24:50;;;;;;;17.13;14.30;;;;;;;15.00;100.00;101972.28;5017776;28;20136;-77
2023/09/27 08:27:17;;;;;;;19.05;14.57;;;;;;;15.13;100.00;101980.75;5037853;28;20482;-77
2023/09/27 08:29:42;;;;;;;17.88;13.90;;;;;;;15.27;100.00;101973.41;5018781;28;20540;-77
2023/09/27 08:32:08;;;;;;;15.63;12.93;;;;;;;15.37;100.00;101980.16;5032039;28;20426;-77
2023/09/27 08:34:34;;;;;;;16.25;13.13;;;;;;;15.61;100.00;101977.78;5025682;28;20095;-77
2023/09/27 08:37:00;;;;;;;15.93;12.95;;;;;;;15.81;100.00;101979.91;5023549;28;20026;-77
2023/09/27 08:39:30;;;;;;;18.52;13.35;;;;;;;15.95;100.00;101977.75;5016919;28;20032;-77
2023/09/27 08:42:01;;;;;;;19.42;13.85;;;;;;;16.11;100.00;101986.09;5022196;28;20083;-77
2023/09/27 08:44:26;;;;;;;16.55;13.98;;;;;;;16.18;100.00;101985.00;5038511;28;20044;-77
2023/09/27 08:46:54;;;;;;;18.60;12.55;;;;;;;16.21;100.00;101978.78;5020580;28;20017;-77
2023/09/27 08:49:20;;;;;;;18.42;13.57;;;;;;;16.23;100.00;101966.47;5040295;28;20048;-77
2023/09/27 08:51:46;;;;;;;18.17;13.13;;;;;;;16.24;100.00;101960.28;5023080;28;20028;-77
2023/09/27 08:54:16;;;;;;;20.67;13.85;;;;;;;16.30;100.00;101957.47;5023483;28;20051;-77
2023/09/27 08:56:46;;;;;;;18.20;14.65;;;;;;;16.48;100.00;101956.06;5051157;28;20080;-77
2023/09/27 08:59:12;;;;;;;18.80;14.40;;;;;;;16.76;100.00;101962.22;5022879;28;20059;-77
2023/09/27 09:01:40;;;;;;;18.77;12.60;;;;;;;17.13;100.00;101952.28;5052223;28;20026;-77
2023/09/27 09:04:06;;;;;;;15.65;12.48;;;;;;;17.37;100.00;101956.72;5021825;28;20446;-77
2023/09/27 09:06:32;;;;;;;14.35;11.00;;;;;;;17.69;100.00;101960.88;5046424;28;20021;-77
2023/09/27 09:09:04;;;;;;;15.48;11.93;;;;;;;17.82;100.00;101952.53;5030160;28;20048;-77
2023/09/27 09:11:31;;;;;;;14.98;10.90;;;;;;;17.84;100.00;101948.94;5046456;28;20034;-77
2023/09/27 09:14:04;;;;;;;14.27;10.55;;;;;;;17.96;100.00;101940.59;5031401;28;20030;-77
2023/09/27 09:16:47;;;;;;;14.88;10.25;;;;;;;18.09;100.00;101941.00;5036385;28;20034;-77
2023/09/27 09:19:23;;;;;;;12.45;11.15;;;;;;;18.29;100.00;101948.16;5022394;28;20086;-77
2023/09/27 09:22:08;;;;;;;11.93;10.00;;;;;;;18.35;100.00;101947.06;5052671;28;20117;-77
2023/09/27 09:24:35;;;;;;;14.70;10.70;;;;;;;18.37;100.00;101939.94;5020974;28;20485;-77
2023/09/27 09:27:09;;;;;;;12.43;11.05;;;;;;;18.53;100.00;101942.84;5057982;28;20058;-77
2023/09/27 09:29:43;;;;;;;13.98;10.63;;;;;;;18.61;100.00;101940.78;5022923;28;20079;-77
2023/09/27 09:32:08;;;;;;;12.38;10.80;;;;;;;18.66;100.00;101933.50;5034258;28;20037;-77
2023/09/27 09:34:40;;;;;;;12.20;10.98;;;;;;;18.62;100.00;101931.91;5027787;28;20465;-77
2023/09/27 09:37:15;;;;;;;12.52;10.45;;;;;;;18.50;100.00;101935.91;5028949;28;20029;-77
2023/09/27 09:39:40;;;;;;;13.10;9.88;;;;;;;18.43;100.00;101923.84;5028214;28;20063;-77
2023/09/27 09:42:06;;;;;;;11.07;9.38;;;;;;;18.40;100.00;101922.19;5025691;28;20029;-77
2023/09/27 09:44:31;;;;;;;13.18;9.90;;;;;;;18.33;100.00;101914.59;5019590;28;20530;-77
2023/09/27 09:47:09;;;;;;;10.52;9.15;;;;;;;18.41;100.00;101917.75;5024035;28;20082;-77
2023/09/27 09:49:35;;;;;;;12.07;9.45;;;;;;;18.41;100.00;101913.38;5041412;28;20046;-78
2023/09/27 09:52:03;;;;;;;12.73;9.73;;;;;;;18.56;100.00;101916.31;5025969;28;20465;-77
2023/09/27 09:54:46;;;;;;;12.48;9.80;;;;;;;18.74;100.00;101898.88;5035608;28;20538;-77
2023/09/27 09:57:13;;;;;;;13.20;9.50;;;;;;;18.99;100.00;101899.59;5034592;28;20030;-77
2023/09/27 10:00:49;;;;;;;10.50;9.15;;;;;;;19.36;100.00;101895.41;5038608;28;20272;-77
2023/09/27 10:02:52;;;;;;;14.13;10.60;;;;;;;19.65;100.00;101886.19;5044862;28;20033;-77
2023/09/27 10:05:19;;;;;;;12.20;10.23;;;;;;;19.93;100.00;101892.88;5050161;28;20137;-77
2023/09/27 10:07:45;;;;;;;16.15;10.65;;;;;;;19.96;100.00;101879.50;5034139;28;20350;-77
2023/09/27 10:10:13;;;;;;;14.00;11.00;;;;;;;19.85;100.00;101875.59;5051793;28;20386;-77
2023/09/27 10:12:40;;;;;;;17.65;11.80;;;;;;;19.73;100.00;101885.84;5030159;28;20026;-77
2023/09/27 10:15:07;;;;;;;14.93;11.15;;;;;;;19.73;100.00;101893.81;5046839;28;20106;-77
2023/09/27 10:17:33;;;;;;;15.18;10.32;;;;;;;19.78;100.00;101897.97;5032611;28;20401;-78
2023/09/27 10:20:12;;;;;;;13.13;9.75;;;;;;;19.97;100.00;101900.59;5038100;28;20478;-77
2023/09/27 10:22:42;;;;;;;13.23;10.07;;;;;;;20.05;100.00;101906.41;5041705;28;20056;-77
2023/09/27 10:25:23;;;;;;;12.10;10.40;;;;;;;20.19;100.00;101895.19;5022024;28;20118;-78
2023/09/27 10:28:06;;;;;;;12.45;10.57;;;;;;;20.31;100.00;101877.88;5035417;28;20413;-77
2023/09/27 10:31:06;;;;;;;12.63;9.70;;;;;;;20.45;100.00;101867.44;5009844;28;20021;-77
2023/09/27 10:33:32;;;;;;;13.05;9.57;;;;;;;20.42;100.00;101851.72;5038132;28;20025;-77
2023/09/27 10:36:03;;;;;;;15.57;9.93;;;;;;;20.45;100.00;101858.66;5021449;28;20083;-77
2023/09/27 10:38:41;;;;;;;18.02;10.30;;;;;;;20.52;100.00;101868.03;5009627;28;20026;-77
2023/09/27 10:41:07;;;;;;;15.13;10.18;;;;;;;20.64;100.00;101863.94;5021497;28;20033;-77
2023/09/27 10:43:32;;;;;;;14.02;10.30;;;;;;;20.76;100.00;101858.91;5040072;28;20384;-77
2023/09/27 10:45:59;;;;;;;11.77;8.60;;;;;;;20.91;100.00;101856.38;5024322;28;20033;-77
2023/09/27 10:48:24;;;;;;;10.25;8.60;;;;;;;21.21;100.00;101856.59;5038425;28;20030;-77
2023/09/27 10:50:53;;;;;;;11.30;7.82;;;;;;;21.34;100.00;101852.38;5022097;28;20030;-77
2023/09/27 10:53:18;;;;;;;8.95;7.10;;;;;;;21.46;100.00;101837.66;5030793;28;20036;-77
2023/09/27 10:55:44;;;;;;;11.57;8.30;;;;;;;21.43;100.00;101835.16;5046784;28;20037;-77
2023/09/27 10:58:15;;;;;;;10.23;7.85;;;;;;;21.48;100.00;101825.13;5032530;28;20045;-77
2023/09/27 11:00:57;;;;;;;13.77;8.93;;;;;;;21.51;100.00;101830.28;5046588;28;20026;-77
2023/09/27 11:03:33;;;;;;;11.88;7.15;;;;;;;21.62;100.00;101816.44;5033540;28;20489;-77